East Ridge, TN (37412)

7:50 PM EDT on April 18, 2015 (GMT -0400)
Lazard St | | Change Station
CLOSE
Current Station
Personal Weather Station
Location: East Ridge, TN
Elevation: 722 ft
Nearby Weather Stations

Elev 722 ft 34.99 °N, 85.24 °W | Updated 1 second ago

Mostly Cloudy
Mostly Cloudy
72.7 °F
Feels Like 74 °F
N
0.0
Wind Variable Wind from WSW
Gusts 1.0 mph

Today
High -- | Low -- °F
--% Chance of Precip.
Yesterday
High -- | Low -- °F
Precip. -- in
7:05 AM 8:15 PM
New Moon, 0% visible
Pressure 29.89 in
Visibility 10.0 miles
Clouds Few 3000 ft
Scattered Clouds 7000 ft
Mostly Cloudy 11000 ft
Mostly Cloudy 25000 ft
Heat Index 74 °F
Dew Point 65 °F
Humidity 76%
Rainfall 0.00 in
Snow Depth Not available.
UV 1 out of 12
Pollen 9.90 out of 12
Air Quality Not available.
Flu Activity Sporadic
METAR KCHA 182253Z 18004KT 10SM FEW030 SCT070 BKN110 BKN250 23/16 A2990 RMK AO2 SLP120 T02330161

More Conditions Fewer Conditions

Pressure 29.89 in
Visibility 10.0 miles
Clouds Few 3000 ft
Scattered Clouds 7000 ft
Mostly Cloudy 11000 ft
Mostly Cloudy 25000 ft
Heat Index 74 °F
Dew Point 65 °F
Humidity 76%
Rainfall 0.00 in
Snow Depth Not available.
UV 1 out of 12
Pollen 9.90 out of 12
Air Quality Not available.
Flu Activity Sporadic
METAR KCHA 182253Z 18004KT 10SM FEW030 SCT070 BKN110 BKN250 23/16 A2990 RMK AO2 SLP120 T02330161

More Conditions Fewer Conditions

10-Day Weather Forecast

Almanac

Astronomy

Apr. 18, 2015 Rise Set
Actual Time
Civil Twilight
Nautical Twilight
Astronomical Twilight
Moon
Length of Visible Light
Length of Day
Tomorrow will be .
, % of the Moon is Illuminated

Today's Extremes

State Highs State Lows

Community

WunderPhotos

Upload Photos

1,814,580 photos uploaded!

WunderBlogs® & News

Nearby

Air Quality

  Air Quality AQ Index Pollutant
Not available.

Snow Depth

Station Depth Elevation

Earthquake Activity

City Distance Mag. Time & Date
Minimum magnitude displayed is 2.5.

Coastal Water Temperatures

Place Temperature

Stations

Nearby Weather Stations

Station Location Temp. Windchill Dew Point Humidity Wind Precip. Elev Updated Type